This is the latest recevied weather packets stored in our database for station/object GW1561. If no packets are shown the sender has not sent any weather packets the latest 10 day(s).
| Time | Temp. | Humidity | Pressure | Rain* | Wind** | Luminosity | Snow |
|---|---|---|---|---|---|---|---|
| 1777539636 | 10° C | 99% | - | 0 mm | - | - | - |
| 1777533490 | 10.56° C | 99% | - | 0 mm | - | - | - |
| 1777533164 | 10.56° C | 99% | - | 0 mm | - | - | - |
| 1777529177 | 11.67° C | 99% | - | 0 mm | - | - | - |
| 1777525575 | 12.22° C | 99% | - | 0 mm | - | - | - |
| 1777523807 | 12.22° C | 99% | - | 0 mm | - | - | - |
| 1777522339 | 12.22° C | 99% | - | 0 mm | - | - | - |
| 1777519854 | 11.67° C | 99% | - | 0 mm | - | - | - |
| 1777518740 | 11.67° C | 99% | - | 0 mm | - | - | - |
| 1777518380 | 11.67° C | 99% | - | 0 mm | - | - | - |
| 1777515868 | 12.22° C | 99% | - | 0 mm | - | - | - |
| 1777515498 | 12.22° C | 99% | - | 0 mm | - | - | - |
| 1777515131 | 12.22° C | 99% | - | 0 mm | - | - | - |
| 1777512972 | 12.78° C | 98% | - | 0 mm | - | - | - |
| 1777507957 | 15° C | 95% | - | 0 mm | - | - | - |
| 1777507230 | 15.56° C | 96% | - | 0 mm | - | - | - |
| 1777506139 | 15.56° C | 96% | - | 0 mm | - | - | - |
| 1777500023 | 16.11° C | 95% | - | 0 mm | - | - | - |
| 1777497889 | 16.11° C | 94% | - | 0 mm | - | - | - |
| 1777492106 | 17.78° C | 95% | - | 0 mm | - | - | - |
| 1777491380 | 17.78° C | 94% | - | 0 mm | - | - | - |
| 1777485267 | 17.22° C | 97% | - | 0 mm | - | - | - |
| 1777481669 | 19.44° C | 91% | - | 0 mm | - | - | - |
| 1777480578 | 18.89° C | 94% | - | 0 mm | - | - | - |
| 1777480229 | 18.89° C | 95% | - | 0 mm | - | - | - |
* Rain since midnight (hover to see other rain measurements)
** Current wind speed in m/s (hover to see current wind gust speed)